Airfield :
LOGIN :

Register | Disclaimer

   EN    FR    IT 

 










Legend :    VFR   Marginal VFR   IFR   Intensive IFR   Very Intensive IFR
Visi :
Ceiling :
>= 8 km
>= 3000ft
5 to 8 km
1000 to 3000 ft
1500m to 5 km
500 to 1000 ft
800 to 1500m
200 to 500 ft
< 800m
< 200 ft
Symbols :   Thunderstorms  Fog  Heavy snow  Heavy precipitations  Wind > 20 kt
SIGMETs :     Misc.  Thunderstorms  Icing  Turbulence  Mountain Waves  Volcanic Ashes






- Airport Elevation : 162 ft
- IATA code : BOD


LFBD - Bordeaux / Merignac

CURRENT METAR :
  • 090900Z AUTO 30018KT 9999 -RA FEW025/// BKN035/// BKN052/// ///TCU 11/08 Q1021 TEMPO 27020G30KT 3500 SHRA FEW025CB BKN030TCU

EXPIRED METARs :
  • 090830Z AUTO 28016KT 9999 -RA FEW025/// SCT031/// BKN043/// ///TCU 11/08 Q1021 TEMPO 27020G30KT 3500 SHRA FEW025CB BKN030TCU
  • 090800Z AUTO 28015KT 9999 -RA FEW035/// BKN041/// BKN048/// ///TCU 11/08 Q1020 TEMPO 27020G30KT 3500 SHRA FEW025CB BKN030TCU
  • 090730Z AUTO 28018G29KT 250V310 9999 SCT029/// BKN034/// BKN043/// ///TCU 11/07 Q1020 TEMPO 3500 SHRA FEW025CB BKN030TCU
  • 090700Z AUTO 28016KT 250V320 9999 BKN037/// BKN043/// OVC076/// ///TCU 11/07 Q1020 TEMPO 27020G30KT 3500 SHRA FEW025CB BKN030TCU

TAF TAF LFBD
Valid from the 09 at 06:00 until the 10 at 12:00 UTC


090500Z 0906/1012 27015KT 9999 BKN030 TX12/0915Z TN05/1006Z
TEMPO 0906/0914 27020G30KT 3500 SHRA FEW025CB BKN030TCU
BECMG 0916/0918 30008KT
BECMG 0918/0920 CAVOK
BECMG 1000/1002 VRB02KT
ATIS : +33 5 57 92 81 04



MET'MAP, your aeronautical weather chart ! - Copyright ORBIFLY December 2007 - Disclaimer

ORBIFLY MET'MAP TEAM :

Programming & Development : Alexandra Zaïnal
Concept & original design : Baudouin d'Aumeries
Assistance for programming : Marc-Olivier Méhu
Technical & hardware support : Manuel Goepfert

Contact : metmap@orbifly.com




SOURCES & CREDITS :

   NOAA